sensor_id;sensor_type;location;lat;lon;timestamp;P1;durP1;ratioP1;P2;durP2;ratioP2
34673;SDS011;20879;55.668;37.858;2022-09-12T00:00:45;7.90;;;5.85;;
34673;SDS011;20879;55.668;37.858;2022-09-12T00:03:14;10.05;;;6.25;;
34673;SDS011;20879;55.668;37.858;2022-09-12T00:05:46;9.98;;;6.32;;
34673;SDS011;20879;55.668;37.858;2022-09-12T00:08:15;11.00;;;6.20;;
34673;SDS011;20879;55.668;37.858;2022-09-12T00:10:46;8.77;;;6.40;;
34673;SDS011;20879;55.668;37.858;2022-09-12T00:13:15;11.18;;;6.30;;
34673;SDS011;20879;55.668;37.858;2022-09-12T00:15:44;13.35;;;6.88;;
34673;SDS011;20879;55.668;37.858;2022-09-12T00:18:15;12.60;;;7.22;;
34673;SDS011;20879;55.668;37.858;2022-09-12T00:20:45;14.40;;;6.85;;
34673;SDS011;20879;55.668;37.858;2022-09-12T00:23:21;9.65;;;6.57;;
34673;SDS011;20879;55.668;37.858;2022-09-12T00:25:52;12.10;;;7.40;;
34673;SDS011;20879;55.668;37.858;2022-09-12T00:28:26;13.65;;;7.00;;
34673;SDS011;20879;55.668;37.858;2022-09-12T00:30:56;11.15;;;7.38;;
34673;SDS011;20879;55.668;37.858;2022-09-12T00:33:25;12.90;;;7.32;;
34673;SDS011;20879;55.668;37.858;2022-09-12T00:35:54;12.15;;;7.65;;
34673;SDS011;20879;55.668;37.858;2022-09-12T00:38:23;11.68;;;7.72;;
34673;SDS011;20879;55.668;37.858;2022-09-12T00:40:54;12.50;;;7.05;;
34673;SDS011;20879;55.668;37.858;2022-09-12T00:43:34;15.63;;;7.30;;
34673;SDS011;20879;55.668;37.858;2022-09-12T00:46:06;12.10;;;7.00;;
34673;SDS011;20879;55.668;37.858;2022-09-12T00:48:43;13.23;;;7.70;;
34673;SDS011;20879;55.668;37.858;2022-09-12T00:51:22;12.50;;;7.07;;
34673;SDS011;20879;55.668;37.858;2022-09-12T00:53:51;11.52;;;7.20;;
34673;SDS011;20879;55.668;37.858;2022-09-12T00:56:24;18.65;;;7.82;;
34673;SDS011;20879;55.668;37.858;2022-09-12T00:59:01;13.18;;;7.70;;
34673;SDS011;20879;55.668;37.858;2022-09-12T01:01:34;12.32;;;7.30;;
34673;SDS011;20879;55.668;37.858;2022-09-12T01:04:04;13.75;;;7.57;;
34673;SDS011;20879;55.668;37.858;2022-09-12T01:06:35;12.93;;;7.20;;
34673;SDS011;20879;55.668;37.858;2022-09-12T01:09:08;14.18;;;7.95;;
34673;SDS011;20879;55.668;37.858;2022-09-12T01:11:42;18.42;;;8.65;;
34673;SDS011;20879;55.668;37.858;2022-09-12T01:14:14;15.13;;;8.40;;
34673;SDS011;20879;55.668;37.858;2022-09-12T01:16:50;16.95;;;9.20;;
34673;SDS011;20879;55.668;37.858;2022-09-12T01:19:34;15.90;;;8.10;;
34673;SDS011;20879;55.668;37.858;2022-09-12T01:22:27;15.52;;;8.18;;
34673;SDS011;20879;55.668;37.858;2022-09-12T01:25:13;11.50;;;7.60;;
34673;SDS011;20879;55.668;37.858;2022-09-12T01:31:00;16.20;;;8.05;;
34673;SDS011;20879;55.668;37.858;2022-09-12T01:33:39;14.10;;;8.10;;
34673;SDS011;20879;55.668;37.858;2022-09-12T01:36:30;16.02;;;8.40;;
34673;SDS011;20879;55.668;37.858;2022-09-12T01:39:05;13.88;;;7.72;;
34673;SDS011;20879;55.668;37.858;2022-09-12T01:41:42;14.77;;;7.90;;
34673;SDS011;20879;55.668;37.858;2022-09-12T01:44:22;14.52;;;7.55;;
34673;SDS011;20879;55.668;37.858;2022-09-12T01:46:59;13.55;;;7.88;;
34673;SDS011;20879;55.668;37.858;2022-09-12T01:49:35;12.75;;;8.13;;
34673;SDS011;20879;55.668;37.858;2022-09-12T01:52:10;13.20;;;8.23;;
34673;SDS011;20879;55.668;37.858;2022-09-12T01:54:45;13.00;;;7.80;;
34673;SDS011;20879;55.668;37.858;2022-09-12T01:57:19;14.93;;;8.00;;
34673;SDS011;20879;55.668;37.858;2022-09-12T01:59:53;15.30;;;7.97;;
34673;SDS011;20879;55.668;37.858;2022-09-12T02:02:44;15.63;;;8.70;;
34673;SDS011;20879;55.668;37.858;2022-09-12T02:05:19;15.52;;;8.35;;
34673;SDS011;20879;55.668;37.858;2022-09-12T02:07:56;14.32;;;8.20;;
34673;SDS011;20879;55.668;37.858;2022-09-12T02:10:30;14.88;;;8.93;;
34673;SDS011;20879;55.668;37.858;2022-09-12T02:13:06;15.43;;;9.00;;
34673;SDS011;20879;55.668;37.858;2022-09-12T02:15:46;14.38;;;9.00;;
34673;SDS011;20879;55.668;37.858;2022-09-12T02:18:25;24.10;;;9.25;;
34673;SDS011;20879;55.668;37.858;2022-09-12T02:20:58;15.68;;;8.98;;
34673;SDS011;20879;55.668;37.858;2022-09-12T02:23:37;16.38;;;9.05;;
34673;SDS011;20879;55.668;37.858;2022-09-12T02:26:13;13.82;;;9.20;;
34673;SDS011;20879;55.668;37.858;2022-09-12T02:28:48;13.57;;;8.60;;
34673;SDS011;20879;55.668;37.858;2022-09-12T02:31:19;13.43;;;8.07;;
34673;SDS011;20879;55.668;37.858;2022-09-12T02:33:57;14.95;;;8.55;;
34673;SDS011;20879;55.668;37.858;2022-09-12T02:36:45;13.27;;;8.80;;
34673;SDS011;20879;55.668;37.858;2022-09-12T02:39:25;13.77;;;8.88;;
34673;SDS011;20879;55.668;37.858;2022-09-12T02:41:55;15.63;;;8.85;;
34673;SDS011;20879;55.668;37.858;2022-09-12T02:44:31;14.82;;;8.05;;
34673;SDS011;20879;55.668;37.858;2022-09-12T02:47:04;14.93;;;9.07;;
34673;SDS011;20879;55.668;37.858;2022-09-12T02:49:45;15.43;;;8.68;;
34673;SDS011;20879;55.668;37.858;2022-09-12T02:52:15;14.88;;;9.18;;
34673;SDS011;20879;55.668;37.858;2022-09-12T02:54:51;15.15;;;8.57;;
34673;SDS011;20879;55.668;37.858;2022-09-12T02:57:20;18.25;;;8.90;;
34673;SDS011;20879;55.668;37.858;2022-09-12T02:59:56;12.98;;;8.57;;
34673;SDS011;20879;55.668;37.858;2022-09-12T03:02:37;13.95;;;8.52;;
34673;SDS011;20879;55.668;37.858;2022-09-12T03:05:27;14.68;;;8.73;;
34673;SDS011;20879;55.668;37.858;2022-09-12T03:08:11;12.43;;;7.90;;
34673;SDS011;20879;55.668;37.858;2022-09-12T03:11:04;16.87;;;8.80;;
34673;SDS011;20879;55.668;37.858;2022-09-12T03:13:53;14.25;;;8.50;;
34673;SDS011;20879;55.668;37.858;2022-09-12T03:16:32;12.73;;;7.93;;
34673;SDS011;20879;55.668;37.858;2022-09-12T03:19:13;11.80;;;7.93;;
34673;SDS011;20879;55.668;37.858;2022-09-12T03:21:52;11.25;;;7.70;;
34673;SDS011;20879;55.668;37.858;2022-09-12T03:24:36;14.63;;;7.65;;
34673;SDS011;20879;55.668;37.858;2022-09-12T03:27:11;15.30;;;8.50;;
34673;SDS011;20879;55.668;37.858;2022-09-12T03:29:54;14.45;;;7.72;;
34673;SDS011;20879;55.668;37.858;2022-09-12T03:32:40;11.65;;;7.53;;
34673;SDS011;20879;55.668;37.858;2022-09-12T03:35:16;14.15;;;8.43;;
34673;SDS011;20879;55.668;37.858;2022-09-12T03:37:51;15.25;;;7.95;;
34673;SDS011;20879;55.668;37.858;2022-09-12T03:40:20;12.75;;;7.78;;
34673;SDS011;20879;55.668;37.858;2022-09-12T03:42:49;14.40;;;8.57;;
34673;SDS011;20879;55.668;37.858;2022-09-12T03:45:18;13.02;;;7.63;;
34673;SDS011;20879;55.668;37.858;2022-09-12T03:47:53;12.65;;;7.85;;
34673;SDS011;20879;55.668;37.858;2022-09-12T03:50:25;14.02;;;8.00;;
34673;SDS011;20879;55.668;37.858;2022-09-12T03:53:01;12.18;;;7.50;;
34673;SDS011;20879;55.668;37.858;2022-09-12T03:55:31;11.75;;;7.53;;
34673;SDS011;20879;55.668;37.858;2022-09-12T03:58:07;13.80;;;8.00;;
34673;SDS011;20879;55.668;37.858;2022-09-12T04:00:37;13.35;;;7.32;;
34673;SDS011;20879;55.668;37.858;2022-09-12T04:03:08;14.90;;;8.13;;
34673;SDS011;20879;55.668;37.858;2022-09-12T04:05:37;14.75;;;7.90;;
34673;SDS011;20879;55.668;37.858;2022-09-12T04:08:08;15.98;;;7.65;;
34673;SDS011;20879;55.668;37.858;2022-09-12T04:10:39;12.68;;;7.65;;
34673;SDS011;20879;55.668;37.858;2022-09-12T04:13:09;13.90;;;8.15;;
34673;SDS011;20879;55.668;37.858;2022-09-12T04:15:49;13.10;;;8.10;;
34673;SDS011;20879;55.668;37.858;2022-09-12T04:18:23;12.13;;;7.72;;
34673;SDS011;20879;55.668;37.858;2022-09-12T04:20:52;14.15;;;8.10;;
34673;SDS011;20879;55.668;37.858;2022-09-12T04:23:24;11.60;;;7.57;;
34673;SDS011;20879;55.668;37.858;2022-09-12T04:25:59;11.75;;;8.20;;
34673;SDS011;20879;55.668;37.858;2022-09-12T04:28:29;12.70;;;8.07;;
34673;SDS011;20879;55.668;37.858;2022-09-12T04:31:03;13.57;;;8.32;;
34673;SDS011;20879;55.668;37.858;2022-09-12T04:33:34;15.85;;;7.72;;
34673;SDS011;20879;55.668;37.858;2022-09-12T04:38:59;17.30;;;9.13;;
34673;SDS011;20879;55.668;37.858;2022-09-12T04:41:29;12.57;;;8.45;;
34673;SDS011;20879;55.668;37.858;2022-09-12T04:44:05;12.65;;;8.00;;
34673;SDS011;20879;55.668;37.858;2022-09-12T04:46:39;12.32;;;8.07;;
34673;SDS011;20879;55.668;37.858;2022-09-12T04:49:10;14.60;;;7.20;;
34673;SDS011;20879;55.668;37.858;2022-09-12T04:51:40;14.50;;;8.85;;
34673;SDS011;20879;55.668;37.858;2022-09-12T04:54:13;11.85;;;7.50;;
34673;SDS011;20879;55.668;37.858;2022-09-12T04:56:44;11.27;;;7.43;;
34673;SDS011;20879;55.668;37.858;2022-09-12T04:59:21;13.25;;;8.23;;
34673;SDS011;20879;55.668;37.858;2022-09-12T05:01:57;17.35;;;8.55;;
34673;SDS011;20879;55.668;37.858;2022-09-12T05:04:26;11.35;;;6.72;;
34673;SDS011;20879;55.668;37.858;2022-09-12T05:07:01;9.68;;;6.57;;
34673;SDS011;20879;55.668;37.858;2022-09-12T05:09:33;12.27;;;7.22;;
34673;SDS011;20879;55.668;37.858;2022-09-12T05:12:07;9.05;;;6.57;;
34673;SDS011;20879;55.668;37.858;2022-09-12T05:14:36;14.35;;;7.50;;
34673;SDS011;20879;55.668;37.858;2022-09-12T05:17:05;12.90;;;7.65;;
34673;SDS011;20879;55.668;37.858;2022-09-12T05:19:35;9.27;;;5.97;;
34673;SDS011;20879;55.668;37.858;2022-09-12T05:22:04;8.23;;;6.07;;
34673;SDS011;20879;55.668;37.858;2022-09-12T05:24:35;9.98;;;7.32;;
34673;SDS011;20879;55.668;37.858;2022-09-12T05:27:16;11.32;;;7.13;;
34673;SDS011;20879;55.668;37.858;2022-09-12T05:29:46;11.18;;;7.10;;
34673;SDS011;20879;55.668;37.858;2022-09-12T05:32:15;12.48;;;7.90;;
34673;SDS011;20879;55.668;37.858;2022-09-12T05:34:44;9.98;;;6.60;;
34673;SDS011;20879;55.668;37.858;2022-09-12T05:37:14;9.38;;;6.68;;
34673;SDS011;20879;55.668;37.858;2022-09-12T05:39:46;9.38;;;6.85;;
34673;SDS011;20879;55.668;37.858;2022-09-12T05:42:15;10.95;;;7.70;;
34673;SDS011;20879;55.668;37.858;2022-09-12T05:44:44;10.38;;;7.45;;
34673;SDS011;20879;55.668;37.858;2022-09-12T05:47:15;13.85;;;7.07;;
34673;SDS011;20879;55.668;37.858;2022-09-12T05:49:44;11.10;;;7.22;;
34673;SDS011;20879;55.668;37.858;2022-09-12T05:54:47;9.82;;;6.47;;
34673;SDS011;20879;55.668;37.858;2022-09-12T05:57:16;8.93;;;6.80;;
34673;SDS011;20879;55.668;37.858;2022-09-12T05:59:45;12.45;;;7.18;;
34673;SDS011;20879;55.668;37.858;2022-09-12T06:02:15;11.15;;;7.28;;
34673;SDS011;20879;55.668;37.858;2022-09-12T06:04:44;9.73;;;5.78;;
34673;SDS011;20879;55.668;37.858;2022-09-12T06:07:19;10.52;;;6.95;;
34673;SDS011;20879;55.668;37.858;2022-09-12T06:09:56;11.20;;;7.07;;
34673;SDS011;20879;55.668;37.858;2022-09-12T06:12:30;11.45;;;6.72;;
34673;SDS011;20879;55.668;37.858;2022-09-12T06:15:05;12.50;;;7.57;;
34673;SDS011;20879;55.668;37.858;2022-09-12T06:17:35;9.57;;;5.88;;
34673;SDS011;20879;55.668;37.858;2022-09-12T06:20:04;16.10;;;10.65;;
34673;SDS011;20879;55.668;37.858;2022-09-12T06:22:40;15.52;;;9.40;;
34673;SDS011;20879;55.668;37.858;2022-09-12T06:25:11;11.95;;;7.05;;
34673;SDS011;20879;55.668;37.858;2022-09-12T06:27:40;10.20;;;6.25;;
34673;SDS011;20879;55.668;37.858;2022-09-12T06:30:16;10.70;;;6.97;;
34673;SDS011;20879;55.668;37.858;2022-09-12T06:32:51;10.07;;;6.68;;
34673;SDS011;20879;55.668;37.858;2022-09-12T06:35:22;8.90;;;6.03;;
34673;SDS011;20879;55.668;37.858;2022-09-12T06:37:56;8.90;;;6.63;;
34673;SDS011;20879;55.668;37.858;2022-09-12T06:40:27;9.43;;;5.85;;
34673;SDS011;20879;55.668;37.858;2022-09-12T06:43:02;9.35;;;5.80;;
34673;SDS011;20879;55.668;37.858;2022-09-12T06:45:31;8.07;;;6.00;;
34673;SDS011;20879;55.668;37.858;2022-09-12T06:48:01;9.45;;;5.75;;
34673;SDS011;20879;55.668;37.858;2022-09-12T06:50:30;8.98;;;5.82;;
34673;SDS011;20879;55.668;37.858;2022-09-12T06:53:00;9.40;;;6.40;;
34673;SDS011;20879;55.668;37.858;2022-09-12T06:55:31;8.63;;;6.20;;
34673;SDS011;20879;55.668;37.858;2022-09-12T07:00:40;9.10;;;5.72;;
34673;SDS011;20879;55.668;37.858;2022-09-12T07:03:09;9.95;;;6.38;;
34673;SDS011;20879;55.668;37.858;2022-09-12T07:05:38;9.07;;;5.80;;
34673;SDS011;20879;55.668;37.858;2022-09-12T07:08:13;9.90;;;6.18;;
34673;SDS011;20879;55.668;37.858;2022-09-12T07:10:44;6.95;;;5.00;;
34673;SDS011;20879;55.668;37.858;2022-09-12T07:13:13;6.97;;;5.07;;
34673;SDS011;20879;55.668;37.858;2022-09-12T07:15:50;7.93;;;5.25;;
34673;SDS011;20879;55.668;37.858;2022-09-12T07:18:24;7.30;;;5.03;;
34673;SDS011;20879;55.668;37.858;2022-09-12T07:20:53;6.55;;;4.70;;
34673;SDS011;20879;55.668;37.858;2022-09-12T07:23:22;6.68;;;4.68;;
34673;SDS011;20879;55.668;37.858;2022-09-12T07:25:53;7.00;;;4.97;;
34673;SDS011;20879;55.668;37.858;2022-09-12T07:28:23;7.47;;;4.25;;
34673;SDS011;20879;55.668;37.858;2022-09-12T07:30:55;7.00;;;4.85;;
34673;SDS011;20879;55.668;37.858;2022-09-12T07:33:26;5.53;;;4.28;;
34673;SDS011;20879;55.668;37.858;2022-09-12T07:36:01;9.00;;;4.68;;
34673;SDS011;20879;55.668;37.858;2022-09-12T07:38:31;5.72;;;4.22;;
34673;SDS011;20879;55.668;37.858;2022-09-12T07:41:02;7.80;;;4.80;;
34673;SDS011;20879;55.668;37.858;2022-09-12T07:43:38;8.10;;;5.07;;
34673;SDS011;20879;55.668;37.858;2022-09-12T07:46:08;8.45;;;5.10;;
34673;SDS011;20879;55.668;37.858;2022-09-12T07:48:37;6.30;;;4.35;;
34673;SDS011;20879;55.668;37.858;2022-09-12T07:51:08;7.03;;;5.05;;
34673;SDS011;20879;55.668;37.858;2022-09-12T07:53:39;9.45;;;4.97;;
34673;SDS011;20879;55.668;37.858;2022-09-12T07:56:11;9.15;;;5.70;;
34673;SDS011;20879;55.668;37.858;2022-09-12T07:58:41;7.43;;;5.07;;
34673;SDS011;20879;55.668;37.858;2022-09-12T08:01:16;9.23;;;6.18;;
34673;SDS011;20879;55.668;37.858;2022-09-12T08:03:47;9.57;;;6.05;;
34673;SDS011;20879;55.668;37.858;2022-09-12T08:06:19;7.50;;;5.60;;
34673;SDS011;20879;55.668;37.858;2022-09-12T08:08:49;9.18;;;6.30;;
34673;SDS011;20879;55.668;37.858;2022-09-12T08:11:21;9.82;;;6.28;;
34673;SDS011;20879;55.668;37.858;2022-09-12T08:13:53;11.63;;;6.82;;
34673;SDS011;20879;55.668;37.858;2022-09-12T08:16:24;9.07;;;5.88;;
34673;SDS011;20879;55.668;37.858;2022-09-12T08:18:55;10.70;;;6.07;;
34673;SDS011;20879;55.668;37.858;2022-09-12T08:21:25;9.30;;;5.32;;
34673;SDS011;20879;55.668;37.858;2022-09-12T08:24:02;10.13;;;6.55;;
34673;SDS011;20879;55.668;37.858;2022-09-12T08:26:34;12.93;;;6.70;;
34673;SDS011;20879;55.668;37.858;2022-09-12T08:29:03;10.25;;;7.28;;
34673;SDS011;20879;55.668;37.858;2022-09-12T08:31:32;10.20;;;7.15;;
34673;SDS011;20879;55.668;37.858;2022-09-12T08:34:02;11.70;;;7.70;;
34673;SDS011;20879;55.668;37.858;2022-09-12T08:36:33;13.25;;;8.23;;
34673;SDS011;20879;55.668;37.858;2022-09-12T08:39:10;12.93;;;7.68;;
34673;SDS011;20879;55.668;37.858;2022-09-12T08:41:44;13.43;;;7.93;;
34673;SDS011;20879;55.668;37.858;2022-09-12T08:44:21;12.35;;;8.15;;
34673;SDS011;20879;55.668;37.858;2022-09-12T08:47:17;15.23;;;8.63;;
34673;SDS011;20879;55.668;37.858;2022-09-12T08:50:03;13.52;;;8.85;;
34673;SDS011;20879;55.668;37.858;2022-09-12T08:52:42;17.30;;;9.30;;
34673;SDS011;20879;55.668;37.858;2022-09-12T08:55:23;14.38;;;9.07;;
34673;SDS011;20879;55.668;37.858;2022-09-12T08:58:09;13.13;;;9.20;;
34673;SDS011;20879;55.668;37.858;2022-09-12T09:00:44;16.95;;;8.95;;
34673;SDS011;20879;55.668;37.858;2022-09-12T09:06:14;15.10;;;10.02;;
34673;SDS011;20879;55.668;37.858;2022-09-12T09:08:59;21.52;;;10.52;;
34673;SDS011;20879;55.668;37.858;2022-09-12T09:11:36;15.88;;;10.50;;
34673;SDS011;20879;55.668;37.858;2022-09-12T09:14:38;17.25;;;10.52;;
34673;SDS011;20879;55.668;37.858;2022-09-12T09:17:23;19.80;;;11.20;;
34673;SDS011;20879;55.668;37.858;2022-09-12T09:20:00;19.45;;;11.95;;
34673;SDS011;20879;55.668;37.858;2022-09-12T09:22:39;16.98;;;9.52;;
34673;SDS011;20879;55.668;37.858;2022-09-12T09:25:13;19.50;;;12.00;;
34673;SDS011;20879;55.668;37.858;2022-09-12T09:27:59;19.90;;;10.18;;
34673;SDS011;20879;55.668;37.858;2022-09-12T09:30:35;20.88;;;12.60;;
34673;SDS011;20879;55.668;37.858;2022-09-12T09:35:39;17.02;;;10.18;;
34673;SDS011;20879;55.668;37.858;2022-09-12T09:38:21;22.08;;;13.02;;
34673;SDS011;20879;55.668;37.858;2022-09-12T09:40:59;21.67;;;12.20;;
34673;SDS011;20879;55.668;37.858;2022-09-12T09:43:40;18.45;;;11.00;;
34673;SDS011;20879;55.668;37.858;2022-09-12T09:46:11;18.40;;;10.80;;
34673;SDS011;20879;55.668;37.858;2022-09-12T09:48:42;20.15;;;11.18;;
34673;SDS011;20879;55.668;37.858;2022-09-12T09:51:15;20.17;;;12.27;;
34673;SDS011;20879;55.668;37.858;2022-09-12T09:53:50;22.45;;;12.18;;
34673;SDS011;20879;55.668;37.858;2022-09-12T09:58:55;21.02;;;11.73;;
34673;SDS011;20879;55.668;37.858;2022-09-12T10:01:31;24.83;;;13.38;;
34673;SDS011;20879;55.668;37.858;2022-09-12T10:04:02;19.30;;;11.68;;
34673;SDS011;20879;55.668;37.858;2022-09-12T10:06:32;20.75;;;12.15;;
34673;SDS011;20879;55.668;37.858;2022-09-12T10:09:07;21.83;;;12.80;;
34673;SDS011;20879;55.668;37.858;2022-09-12T10:11:53;21.02;;;13.00;;
34673;SDS011;20879;55.668;37.858;2022-09-12T10:14:32;21.25;;;12.80;;
34673;SDS011;20879;55.668;37.858;2022-09-12T10:17:24;21.52;;;13.88;;
34673;SDS011;20879;55.668;37.858;2022-09-12T10:20:01;20.65;;;12.60;;
34673;SDS011;20879;55.668;37.858;2022-09-12T10:22:48;24.05;;;12.88;;
34673;SDS011;20879;55.668;37.858;2022-09-12T10:25:18;19.83;;;10.50;;
34673;SDS011;20879;55.668;37.858;2022-09-12T10:27:51;21.95;;;13.23;;
34673;SDS011;20879;55.668;37.858;2022-09-12T10:30:27;23.58;;;13.85;;
34673;SDS011;20879;55.668;37.858;2022-09-12T10:33:05;21.25;;;13.85;;
34673;SDS011;20879;55.668;37.858;2022-09-12T10:35:44;18.48;;;12.30;;
34673;SDS011;20879;55.668;37.858;2022-09-12T10:38:20;20.50;;;12.77;;
34673;SDS011;20879;55.668;37.858;2022-09-12T10:40:55;20.95;;;11.95;;
34673;SDS011;20879;55.668;37.858;2022-09-12T10:43:28;24.30;;;13.75;;
34673;SDS011;20879;55.668;37.858;2022-09-12T10:52:15;22.80;;;11.80;;
34673;SDS011;20879;55.668;37.858;2022-09-12T10:54:48;19.65;;;12.30;;
34673;SDS011;20879;55.668;37.858;2022-09-12T10:57:34;21.13;;;12.75;;
34673;SDS011;20879;55.668;37.858;2022-09-12T11:00:16;17.77;;;10.60;;
34673;SDS011;20879;55.668;37.858;2022-09-12T11:02:57;19.13;;;11.82;;
34673;SDS011;20879;55.668;37.858;2022-09-12T11:05:40;19.40;;;11.43;;
34673;SDS011;20879;55.668;37.858;2022-09-12T11:08:30;18.73;;;11.65;;
34673;SDS011;20879;55.668;37.858;2022-09-12T11:11:28;15.00;;;9.18;;
34673;SDS011;20879;55.668;37.858;2022-09-12T11:14:08;19.35;;;12.10;;
34673;SDS011;20879;55.668;37.858;2022-09-12T11:16:55;19.05;;;10.98;;
34673;SDS011;20879;55.668;37.858;2022-09-12T11:19:44;16.90;;;10.52;;
34673;SDS011;20879;55.668;37.858;2022-09-12T11:22:34;19.20;;;11.70;;
34673;SDS011;20879;55.668;37.858;2022-09-12T11:25:12;21.58;;;10.85;;
34673;SDS011;20879;55.668;37.858;2022-09-12T11:28:03;18.52;;;11.38;;
34673;SDS011;20879;55.668;37.858;2022-09-12T11:30:55;16.73;;;10.10;;
34673;SDS011;20879;55.668;37.858;2022-09-12T11:33:41;18.02;;;10.98;;
34673;SDS011;20879;55.668;37.858;2022-09-12T11:36:15;20.47;;;12.93;;
34673;SDS011;20879;55.668;37.858;2022-09-12T11:39:02;18.02;;;10.05;;
34673;SDS011;20879;55.668;37.858;2022-09-12T11:41:40;18.80;;;10.55;;
34673;SDS011;20879;55.668;37.858;2022-09-12T11:44:17;22.67;;;12.43;;
34673;SDS011;20879;55.668;37.858;2022-09-12T11:46:50;19.38;;;11.65;;
34673;SDS011;20879;55.668;37.858;2022-09-12T11:49:21;18.67;;;11.52;;
34673;SDS011;20879;55.668;37.858;2022-09-12T11:52:02;19.40;;;11.35;;
34673;SDS011;20879;55.668;37.858;2022-09-12T11:54:44;20.92;;;12.25;;
34673;SDS011;20879;55.668;37.858;2022-09-12T11:57:25;21.23;;;12.00;;
34673;SDS011;20879;55.668;37.858;2022-09-12T12:00:13;21.70;;;11.98;;
34673;SDS011;20879;55.668;37.858;2022-09-12T12:02:48;19.55;;;11.25;;
34673;SDS011;20879;55.668;37.858;2022-09-12T12:05:28;19.25;;;10.40;;
34673;SDS011;20879;55.668;37.858;2022-09-12T12:08:03;19.38;;;10.95;;
34673;SDS011;20879;55.668;37.858;2022-09-12T12:13:06;15.43;;;9.82;;
34673;SDS011;20879;55.668;37.858;2022-09-12T12:15:44;14.98;;;9.57;;
34673;SDS011;20879;55.668;37.858;2022-09-12T12:18:17;17.33;;;9.73;;
34673;SDS011;20879;55.668;37.858;2022-09-12T12:20:49;16.45;;;9.85;;
34673;SDS011;20879;55.668;37.858;2022-09-12T12:23:23;17.05;;;9.02;;
34673;SDS011;20879;55.668;37.858;2022-09-12T12:25:56;18.70;;;9.38;;
34673;SDS011;20879;55.668;37.858;2022-09-12T12:31:27;12.88;;;8.10;;
34673;SDS011;20879;55.668;37.858;2022-09-12T12:36:49;16.33;;;8.60;;
34673;SDS011;20879;55.668;37.858;2022-09-12T12:45:46;16.77;;;8.10;;
34673;SDS011;20879;55.668;37.858;2022-09-12T12:48:17;13.90;;;7.97;;
34673;SDS011;20879;55.668;37.858;2022-09-12T12:56:52;14.40;;;7.30;;
34673;SDS011;20879;55.668;37.858;2022-09-12T12:59:30;9.43;;;6.68;;
34673;SDS011;20879;55.668;37.858;2022-09-12T13:01:59;11.60;;;6.38;;
34673;SDS011;20879;55.668;37.858;2022-09-12T13:04:29;9.75;;;5.68;;
34673;SDS011;20879;55.668;37.858;2022-09-12T13:07:01;12.27;;;6.53;;
34673;SDS011;20879;55.668;37.858;2022-09-12T13:09:36;12.65;;;6.80;;
34673;SDS011;20879;55.668;37.858;2022-09-12T13:12:20;12.80;;;6.70;;
34673;SDS011;20879;55.668;37.858;2022-09-12T13:14:56;9.55;;;6.45;;
34673;SDS011;20879;55.668;37.858;2022-09-12T13:17:30;9.60;;;6.00;;
34673;SDS011;20879;55.668;37.858;2022-09-12T13:20:18;10.48;;;5.75;;
34673;SDS011;20879;55.668;37.858;2022-09-12T13:22:56;10.10;;;5.53;;
34673;SDS011;20879;55.668;37.858;2022-09-12T13:25:27;9.00;;;5.75;;
34673;SDS011;20879;55.668;37.858;2022-09-12T13:28:13;7.55;;;5.10;;
34673;SDS011;20879;55.668;37.858;2022-09-12T13:30:46;8.70;;;5.60;;
34673;SDS011;20879;55.668;37.858;2022-09-12T13:33:23;7.88;;;5.50;;
34673;SDS011;20879;55.668;37.858;2022-09-12T13:36:06;9.55;;;5.07;;
34673;SDS011;20879;55.668;37.858;2022-09-12T13:38:50;7.80;;;4.97;;
34673;SDS011;20879;55.668;37.858;2022-09-12T13:41:35;8.68;;;5.10;;
34673;SDS011;20879;55.668;37.858;2022-09-12T13:44:21;9.48;;;5.10;;
34673;SDS011;20879;55.668;37.858;2022-09-12T13:46:51;7.40;;;4.70;;
34673;SDS011;20879;55.668;37.858;2022-09-12T13:49:25;8.77;;;4.28;;
34673;SDS011;20879;55.668;37.858;2022-09-12T13:52:01;6.25;;;4.13;;
34673;SDS011;20879;55.668;37.858;2022-09-12T13:54:33;7.53;;;4.03;;
34673;SDS011;20879;55.668;37.858;2022-09-12T13:57:23;7.25;;;4.20;;
34673;SDS011;20879;55.668;37.858;2022-09-12T13:59:58;9.25;;;4.03;;
34673;SDS011;20879;55.668;37.858;2022-09-12T14:02:32;6.07;;;3.35;;
34673;SDS011;20879;55.668;37.858;2022-09-12T14:05:13;6.15;;;3.70;;
34673;SDS011;20879;55.668;37.858;2022-09-12T14:07:50;6.10;;;3.75;;
34673;SDS011;20879;55.668;37.858;2022-09-12T14:10:26;4.65;;;3.50;;
34673;SDS011;20879;55.668;37.858;2022-09-12T14:13:00;6.55;;;3.95;;
34673;SDS011;20879;55.668;37.858;2022-09-12T14:15:34;7.82;;;4.13;;
34673;SDS011;20879;55.668;37.858;2022-09-12T14:18:05;6.78;;;3.80;;
34673;SDS011;20879;55.668;37.858;2022-09-12T14:20:37;6.47;;;4.20;;
34673;SDS011;20879;55.668;37.858;2022-09-12T14:23:11;5.55;;;3.70;;
34673;SDS011;20879;55.668;37.858;2022-09-12T14:25:47;7.35;;;3.70;;
34673;SDS011;20879;55.668;37.858;2022-09-12T14:28:17;6.60;;;3.75;;
34673;SDS011;20879;55.668;37.858;2022-09-12T14:30:59;5.30;;;4.00;;
34673;SDS011;20879;55.668;37.858;2022-09-12T14:33:33;8.20;;;4.05;;
34673;SDS011;20879;55.668;37.858;2022-09-12T14:36:21;6.90;;;4.00;;
34673;SDS011;20879;55.668;37.858;2022-09-12T14:38:58;8.70;;;3.97;;
34673;SDS011;20879;55.668;37.858;2022-09-12T14:41:31;5.78;;;3.90;;
34673;SDS011;20879;55.668;37.858;2022-09-12T14:44:03;7.40;;;3.60;;
34673;SDS011;20879;55.668;37.858;2022-09-12T14:46:47;9.02;;;6.20;;
34673;SDS011;20879;55.668;37.858;2022-09-12T14:49:18;4.70;;;3.88;;
34673;SDS011;20879;55.668;37.858;2022-09-12T14:51:57;4.95;;;3.78;;
34673;SDS011;20879;55.668;37.858;2022-09-12T14:54:35;7.70;;;3.70;;
34673;SDS011;20879;55.668;37.858;2022-09-12T14:57:27;4.47;;;3.50;;
34673;SDS011;20879;55.668;37.858;2022-09-12T15:02:50;5.65;;;3.65;;
34673;SDS011;20879;55.668;37.858;2022-09-12T15:05:24;6.68;;;3.67;;
34673;SDS011;20879;55.668;37.858;2022-09-12T15:07:56;6.75;;;3.40;;
34673;SDS011;20879;55.668;37.858;2022-09-12T15:10:28;4.57;;;3.20;;
34673;SDS011;20879;55.668;37.858;2022-09-12T15:13:03;4.43;;;3.20;;
34673;SDS011;20879;55.668;37.858;2022-09-12T15:15:40;4.22;;;3.42;;
34673;SDS011;20879;55.668;37.858;2022-09-12T15:18:17;4.38;;;3.15;;
34673;SDS011;20879;55.668;37.858;2022-09-12T15:20:48;5.47;;;3.35;;
34673;SDS011;20879;55.668;37.858;2022-09-12T15:25:56;3.38;;;2.70;;
34673;SDS011;20879;55.668;37.858;2022-09-12T15:28:26;5.85;;;2.70;;
34673;SDS011;20879;55.668;37.858;2022-09-12T15:30:59;4.10;;;3.20;;
34673;SDS011;20879;55.668;37.858;2022-09-12T15:33:35;6.20;;;3.35;;
34673;SDS011;20879;55.668;37.858;2022-09-12T15:36:09;7.13;;;2.97;;
34673;SDS011;20879;55.668;37.858;2022-09-12T15:38:48;5.53;;;3.28;;
34673;SDS011;20879;55.668;37.858;2022-09-12T15:41:25;5.32;;;3.08;;
34673;SDS011;20879;55.668;37.858;2022-09-12T15:43:59;7.70;;;3.38;;
34673;SDS011;20879;55.668;37.858;2022-09-12T15:46:33;7.53;;;3.40;;
34673;SDS011;20879;55.668;37.858;2022-09-12T15:49:04;4.70;;;2.92;;
34673;SDS011;20879;55.668;37.858;2022-09-12T15:51:34;6.95;;;2.75;;
34673;SDS011;20879;55.668;37.858;2022-09-12T15:54:04;6.13;;;3.45;;
34673;SDS011;20879;55.668;37.858;2022-09-12T15:56:33;5.35;;;2.78;;
34673;SDS011;20879;55.668;37.858;2022-09-12T15:59:03;6.63;;;3.15;;
34673;SDS011;20879;55.668;37.858;2022-09-12T16:01:33;2.53;;;2.10;;